sensor_id;sensor_type;location;lat;lon;timestamp;P1;durP1;ratioP1;P2;durP2;ratioP2
7575;SDS011;3829;50.798;4.358;2023-04-25T00:00:35;12.40;;;4.43;;
7575;SDS011;3829;50.798;4.358;2023-04-25T00:03:00;15.70;;;3.30;;
7575;SDS011;3829;50.798;4.358;2023-04-25T00:05:26;9.83;;;3.53;;
7575;SDS011;3829;50.798;4.358;2023-04-25T00:07:52;10.17;;;3.27;;
7575;SDS011;3829;50.798;4.358;2023-04-25T00:10:19;15.27;;;4.07;;
7575;SDS011;3829;50.798;4.358;2023-04-25T00:12:45;23.83;;;4.30;;
7575;SDS011;3829;50.798;4.358;2023-04-25T00:15:11;11.97;;;3.27;;
7575;SDS011;3829;50.798;4.358;2023-04-25T00:17:37;11.03;;;3.30;;
7575;SDS011;3829;50.798;4.358;2023-04-25T00:20:03;9.13;;;3.10;;
7575;SDS011;3829;50.798;4.358;2023-04-25T00:22:30;21.53;;;4.83;;
7575;SDS011;3829;50.798;4.358;2023-04-25T00:24:56;18.57;;;3.57;;
7575;SDS011;3829;50.798;4.358;2023-04-25T00:27:25;12.40;;;3.60;;
7575;SDS011;3829;50.798;4.358;2023-04-25T00:29:51;14.20;;;3.73;;
7575;SDS011;3829;50.798;4.358;2023-04-25T00:32:17;8.77;;;3.30;;
7575;SDS011;3829;50.798;4.358;2023-04-25T00:34:42;16.57;;;3.87;;
7575;SDS011;3829;50.798;4.358;2023-04-25T00:37:08;21.47;;;4.30;;
7575;SDS011;3829;50.798;4.358;2023-04-25T00:39:33;11.17;;;3.17;;
7575;SDS011;3829;50.798;4.358;2023-04-25T00:41:59;9.77;;;3.43;;
7575;SDS011;3829;50.798;4.358;2023-04-25T00:44:26;10.07;;;2.93;;
7575;SDS011;3829;50.798;4.358;2023-04-25T00:46:54;14.83;;;3.57;;
7575;SDS011;3829;50.798;4.358;2023-04-25T00:49:20;14.43;;;3.40;;
7575;SDS011;3829;50.798;4.358;2023-04-25T00:51:46;13.93;;;3.90;;
7575;SDS011;3829;50.798;4.358;2023-04-25T00:54:11;14.97;;;5.00;;
7575;SDS011;3829;50.798;4.358;2023-04-25T00:56:37;17.03;;;4.17;;
7575;SDS011;3829;50.798;4.358;2023-04-25T00:59:03;12.63;;;3.70;;
7575;SDS011;3829;50.798;4.358;2023-04-25T01:01:29;17.07;;;4.20;;
7575;SDS011;3829;50.798;4.358;2023-04-25T01:03:56;13.20;;;4.03;;
7575;SDS011;3829;50.798;4.358;2023-04-25T01:06:24;20.50;;;4.60;;
7575;SDS011;3829;50.798;4.358;2023-04-25T01:08:50;14.87;;;4.00;;
7575;SDS011;3829;50.798;4.358;2023-04-25T01:11:16;17.17;;;4.13;;
7575;SDS011;3829;50.798;4.358;2023-04-25T01:13:42;9.77;;;3.90;;
7575;SDS011;3829;50.798;4.358;2023-04-25T01:16:08;15.80;;;4.87;;
7575;SDS011;3829;50.798;4.358;2023-04-25T01:18:34;29.97;;;6.57;;
7575;SDS011;3829;50.798;4.358;2023-04-25T01:21:06;9.40;;;3.90;;
7575;SDS011;3829;50.798;4.358;2023-04-25T01:23:35;13.43;;;4.13;;
7575;SDS011;3829;50.798;4.358;2023-04-25T01:26:03;12.93;;;4.40;;
7575;SDS011;3829;50.798;4.358;2023-04-25T01:28:29;18.43;;;5.13;;
7575;SDS011;3829;50.798;4.358;2023-04-25T01:30:55;21.33;;;5.43;;
7575;SDS011;3829;50.798;4.358;2023-04-25T01:33:21;20.30;;;3.80;;
7575;SDS011;3829;50.798;4.358;2023-04-25T01:35:47;14.20;;;4.00;;
7575;SDS011;3829;50.798;4.358;2023-04-25T01:38:13;18.87;;;4.93;;
7575;SDS011;3829;50.798;4.358;2023-04-25T01:40:40;19.60;;;5.90;;
7575;SDS011;3829;50.798;4.358;2023-04-25T01:43:06;19.63;;;5.30;;
7575;SDS011;3829;50.798;4.358;2023-04-25T01:45:36;20.50;;;5.07;;
7575;SDS011;3829;50.798;4.358;2023-04-25T01:48:04;13.40;;;4.63;;
7575;SDS011;3829;50.798;4.358;2023-04-25T01:50:30;17.83;;;4.53;;
7575;SDS011;3829;50.798;4.358;2023-04-25T01:52:56;19.43;;;4.77;;
7575;SDS011;3829;50.798;4.358;2023-04-25T01:55:22;19.70;;;4.33;;
7575;SDS011;3829;50.798;4.358;2023-04-25T01:57:47;20.37;;;5.07;;
7575;SDS011;3829;50.798;4.358;2023-04-25T02:00:13;22.47;;;5.27;;
7575;SDS011;3829;50.798;4.358;2023-04-25T02:02:39;24.87;;;5.50;;
7575;SDS011;3829;50.798;4.358;2023-04-25T02:05:05;16.53;;;4.40;;
7575;SDS011;3829;50.798;4.358;2023-04-25T02:07:31;15.37;;;4.47;;
7575;SDS011;3829;50.798;4.358;2023-04-25T02:09:57;18.13;;;4.57;;
7575;SDS011;3829;50.798;4.358;2023-04-25T02:12:23;13.97;;;4.00;;
7575;SDS011;3829;50.798;4.358;2023-04-25T02:14:51;16.23;;;4.10;;
7575;SDS011;3829;50.798;4.358;2023-04-25T02:17:16;9.80;;;3.77;;
7575;SDS011;3829;50.798;4.358;2023-04-25T02:19:42;16.47;;;4.50;;
7575;SDS011;3829;50.798;4.358;2023-04-25T02:22:08;13.53;;;4.03;;
7575;SDS011;3829;50.798;4.358;2023-04-25T02:24:34;16.70;;;4.93;;
7575;SDS011;3829;50.798;4.358;2023-04-25T02:26:59;19.07;;;4.60;;
7575;SDS011;3829;50.798;4.358;2023-04-25T02:29:25;16.77;;;4.03;;
7575;SDS011;3829;50.798;4.358;2023-04-25T02:31:51;18.67;;;4.10;;
7575;SDS011;3829;50.798;4.358;2023-04-25T02:34:16;16.73;;;4.13;;
7575;SDS011;3829;50.798;4.358;2023-04-25T02:36:42;17.50;;;4.73;;
7575;SDS011;3829;50.798;4.358;2023-04-25T02:39:07;24.47;;;4.70;;
7575;SDS011;3829;50.798;4.358;2023-04-25T02:41:33;13.10;;;4.30;;
7575;SDS011;3829;50.798;4.358;2023-04-25T02:43:59;13.03;;;4.53;;
7575;SDS011;3829;50.798;4.358;2023-04-25T02:46:24;16.07;;;4.40;;
7575;SDS011;3829;50.798;4.358;2023-04-25T02:48:50;17.63;;;4.00;;
7575;SDS011;3829;50.798;4.358;2023-04-25T02:51:15;16.80;;;3.80;;
7575;SDS011;3829;50.798;4.358;2023-04-25T02:53:41;13.63;;;4.20;;
7575;SDS011;3829;50.798;4.358;2023-04-25T02:56:07;9.73;;;4.20;;
7575;SDS011;3829;50.798;4.358;2023-04-25T02:58:32;17.03;;;4.57;;
7575;SDS011;3829;50.798;4.358;2023-04-25T03:00:58;16.90;;;4.40;;
7575;SDS011;3829;50.798;4.358;2023-04-25T03:03:23;20.00;;;3.90;;
7575;SDS011;3829;50.798;4.358;2023-04-25T03:05:49;16.07;;;4.23;;
7575;SDS011;3829;50.798;4.358;2023-04-25T03:08:16;13.43;;;4.77;;
7575;SDS011;3829;50.798;4.358;2023-04-25T03:10:42;16.50;;;3.90;;
7575;SDS011;3829;50.798;4.358;2023-04-25T03:13:08;16.23;;;4.90;;
7575;SDS011;3829;50.798;4.358;2023-04-25T03:15:35;17.00;;;4.70;;
7575;SDS011;3829;50.798;4.358;2023-04-25T03:18:01;21.60;;;5.13;;
7575;SDS011;3829;50.798;4.358;2023-04-25T03:20:26;16.90;;;5.57;;
7575;SDS011;3829;50.798;4.358;2023-04-25T03:22:53;22.30;;;4.80;;
7575;SDS011;3829;50.798;4.358;2023-04-25T03:25:18;12.00;;;4.83;;
7575;SDS011;3829;50.798;4.358;2023-04-25T03:27:44;21.03;;;4.90;;
7575;SDS011;3829;50.798;4.358;2023-04-25T03:30:10;13.80;;;4.10;;
7575;SDS011;3829;50.798;4.358;2023-04-25T03:32:36;17.70;;;5.23;;
7575;SDS011;3829;50.798;4.358;2023-04-25T03:35:01;20.30;;;4.80;;
7575;SDS011;3829;50.798;4.358;2023-04-25T03:37:28;15.97;;;4.53;;
7575;SDS011;3829;50.798;4.358;2023-04-25T03:39:53;21.07;;;5.03;;
7575;SDS011;3829;50.798;4.358;2023-04-25T03:42:19;16.20;;;4.80;;
7575;SDS011;3829;50.798;4.358;2023-04-25T03:44:44;18.23;;;4.40;;
7575;SDS011;3829;50.798;4.358;2023-04-25T03:47:10;21.53;;;4.70;;
7575;SDS011;3829;50.798;4.358;2023-04-25T03:49:35;19.53;;;4.83;;
7575;SDS011;3829;50.798;4.358;2023-04-25T03:52:02;21.77;;;4.57;;
7575;SDS011;3829;50.798;4.358;2023-04-25T03:54:28;20.23;;;4.90;;
7575;SDS011;3829;50.798;4.358;2023-04-25T03:56:53;21.47;;;5.30;;
7575;SDS011;3829;50.798;4.358;2023-04-25T03:59:19;15.50;;;5.27;;
7575;SDS011;3829;50.798;4.358;2023-04-25T04:01:44;17.10;;;4.20;;
7575;SDS011;3829;50.798;4.358;2023-04-25T04:04:10;16.20;;;5.83;;
7575;SDS011;3829;50.798;4.358;2023-04-25T04:06:35;14.97;;;4.13;;
7575;SDS011;3829;50.798;4.358;2023-04-25T04:09:01;12.27;;;4.33;;
7575;SDS011;3829;50.798;4.358;2023-04-25T04:11:28;18.63;;;4.90;;
7575;SDS011;3829;50.798;4.358;2023-04-25T04:13:53;13.97;;;4.50;;
7575;SDS011;3829;50.798;4.358;2023-04-25T04:16:19;13.50;;;3.77;;
7575;SDS011;3829;50.798;4.358;2023-04-25T04:18:45;9.70;;;3.37;;
7575;SDS011;3829;50.798;4.358;2023-04-25T04:21:11;14.90;;;4.50;;
7575;SDS011;3829;50.798;4.358;2023-04-25T04:23:36;11.00;;;4.03;;
7575;SDS011;3829;50.798;4.358;2023-04-25T04:26:02;11.53;;;3.90;;
7575;SDS011;3829;50.798;4.358;2023-04-25T04:28:28;12.67;;;3.67;;
7575;SDS011;3829;50.798;4.358;2023-04-25T04:30:54;16.53;;;3.70;;
7575;SDS011;3829;50.798;4.358;2023-04-25T04:33:20;12.23;;;3.83;;
7575;SDS011;3829;50.798;4.358;2023-04-25T04:35:46;12.20;;;3.50;;
7575;SDS011;3829;50.798;4.358;2023-04-25T04:38:12;13.30;;;3.70;;
7575;SDS011;3829;50.798;4.358;2023-04-25T04:40:40;13.77;;;3.60;;
7575;SDS011;3829;50.798;4.358;2023-04-25T04:43:07;16.07;;;4.13;;
7575;SDS011;3829;50.798;4.358;2023-04-25T04:45:35;10.40;;;3.63;;
7575;SDS011;3829;50.798;4.358;2023-04-25T04:48:01;10.70;;;3.30;;
7575;SDS011;3829;50.798;4.358;2023-04-25T04:50:27;11.43;;;3.73;;
7575;SDS011;3829;50.798;4.358;2023-04-25T04:52:53;18.03;;;4.10;;
7575;SDS011;3829;50.798;4.358;2023-04-25T04:55:20;11.53;;;3.23;;
7575;SDS011;3829;50.798;4.358;2023-04-25T04:57:45;11.20;;;3.37;;
7575;SDS011;3829;50.798;4.358;2023-04-25T05:00:11;13.03;;;3.33;;
7575;SDS011;3829;50.798;4.358;2023-04-25T05:02:37;16.73;;;4.47;;
7575;SDS011;3829;50.798;4.358;2023-04-25T05:05:04;24.20;;;6.03;;
7575;SDS011;3829;50.798;4.358;2023-04-25T05:07:30;18.43;;;5.07;;
7575;SDS011;3829;50.798;4.358;2023-04-25T05:09:56;11.33;;;4.63;;
7575;SDS011;3829;50.798;4.358;2023-04-25T05:12:21;20.13;;;4.53;;
7575;SDS011;3829;50.798;4.358;2023-04-25T05:14:47;15.07;;;5.13;;
7575;SDS011;3829;50.798;4.358;2023-04-25T05:17:12;11.93;;;4.47;;
7575;SDS011;3829;50.798;4.358;2023-04-25T05:19:38;18.77;;;4.40;;
7575;SDS011;3829;50.798;4.358;2023-04-25T05:22:04;17.53;;;4.20;;
7575;SDS011;3829;50.798;4.358;2023-04-25T05:24:30;12.83;;;4.23;;
7575;SDS011;3829;50.798;4.358;2023-04-25T05:26:55;18.60;;;5.27;;
7575;SDS011;3829;50.798;4.358;2023-04-25T05:29:21;13.87;;;4.77;;
7575;SDS011;3829;50.798;4.358;2023-04-25T05:31:47;12.90;;;4.57;;
7575;SDS011;3829;50.798;4.358;2023-04-25T05:34:13;22.47;;;5.27;;
7575;SDS011;3829;50.798;4.358;2023-04-25T05:36:38;14.83;;;5.27;;
7575;SDS011;3829;50.798;4.358;2023-04-25T05:39:04;19.03;;;7.00;;
7575;SDS011;3829;50.798;4.358;2023-04-25T05:41:31;11.47;;;4.80;;
7575;SDS011;3829;50.798;4.358;2023-04-25T05:43:56;19.50;;;5.10;;
7575;SDS011;3829;50.798;4.358;2023-04-25T05:46:22;22.37;;;5.87;;
7575;SDS011;3829;50.798;4.358;2023-04-25T05:48:47;13.40;;;5.87;;
7575;SDS011;3829;50.798;4.358;2023-04-25T05:51:13;21.90;;;6.20;;
7575;SDS011;3829;50.798;4.358;2023-04-25T05:53:38;13.13;;;5.43;;
7575;SDS011;3829;50.798;4.358;2023-04-25T05:56:04;11.03;;;4.40;;
7575;SDS011;3829;50.798;4.358;2023-04-25T05:58:30;15.80;;;5.03;;
7575;SDS011;3829;50.798;4.358;2023-04-25T06:00:55;15.43;;;4.93;;
7575;SDS011;3829;50.798;4.358;2023-04-25T06:03:21;12.03;;;4.90;;
7575;SDS011;3829;50.798;4.358;2023-04-25T06:05:47;10.30;;;3.77;;
7575;SDS011;3829;50.798;4.358;2023-04-25T06:08:13;15.20;;;4.00;;
7575;SDS011;3829;50.798;4.358;2023-04-25T06:10:38;13.33;;;3.87;;
7575;SDS011;3829;50.798;4.358;2023-04-25T06:13:04;14.07;;;4.30;;
7575;SDS011;3829;50.798;4.358;2023-04-25T06:15:30;11.53;;;3.33;;
7575;SDS011;3829;50.798;4.358;2023-04-25T06:17:57;17.37;;;4.43;;
7575;SDS011;3829;50.798;4.358;2023-04-25T06:20:23;18.93;;;3.90;;
7575;SDS011;3829;50.798;4.358;2023-04-25T06:22:50;12.97;;;3.57;;
7575;SDS011;3829;50.798;4.358;2023-04-25T06:25:17;11.40;;;3.80;;
7575;SDS011;3829;50.798;4.358;2023-04-25T06:27:43;17.57;;;4.03;;
7575;SDS011;3829;50.798;4.358;2023-04-25T06:30:08;12.73;;;3.83;;
7575;SDS011;3829;50.798;4.358;2023-04-25T06:32:36;17.10;;;4.60;;
7575;SDS011;3829;50.798;4.358;2023-04-25T06:35:02;11.93;;;4.77;;
7575;SDS011;3829;50.798;4.358;2023-04-25T06:37:28;12.90;;;4.53;;
7575;SDS011;3829;50.798;4.358;2023-04-25T06:39:53;20.77;;;6.03;;
7575;SDS011;3829;50.798;4.358;2023-04-25T06:42:19;21.70;;;6.00;;
7575;SDS011;3829;50.798;4.358;2023-04-25T06:44:44;19.07;;;5.50;;
7575;SDS011;3829;50.798;4.358;2023-04-25T06:47:10;15.27;;;5.13;;
7575;SDS011;3829;50.798;4.358;2023-04-25T06:49:36;14.00;;;4.73;;
7575;SDS011;3829;50.798;4.358;2023-04-25T06:52:01;14.77;;;5.00;;
7575;SDS011;3829;50.798;4.358;2023-04-25T06:54:27;16.80;;;4.40;;
7575;SDS011;3829;50.798;4.358;2023-04-25T06:56:54;17.17;;;4.13;;
7575;SDS011;3829;50.798;4.358;2023-04-25T06:59:20;11.70;;;3.80;;
7575;SDS011;3829;50.798;4.358;2023-04-25T07:01:46;12.30;;;3.40;;
7575;SDS011;3829;50.798;4.358;2023-04-25T07:04:12;10.83;;;3.10;;
7575;SDS011;3829;50.798;4.358;2023-04-25T07:06:38;13.33;;;3.47;;
7575;SDS011;3829;50.798;4.358;2023-04-25T07:09:07;11.03;;;3.10;;
7575;SDS011;3829;50.798;4.358;2023-04-25T07:11:34;7.30;;;3.07;;
7575;SDS011;3829;50.798;4.358;2023-04-25T07:14:00;18.33;;;3.87;;
7575;SDS011;3829;50.798;4.358;2023-04-25T07:16:26;7.33;;;2.77;;
7575;SDS011;3829;50.798;4.358;2023-04-25T07:18:52;13.63;;;3.40;;
7575;SDS011;3829;50.798;4.358;2023-04-25T07:21:17;12.63;;;3.23;;
7575;SDS011;3829;50.798;4.358;2023-04-25T07:23:43;8.87;;;3.00;;
7575;SDS011;3829;50.798;4.358;2023-04-25T07:26:08;13.43;;;3.17;;
7575;SDS011;3829;50.798;4.358;2023-04-25T07:28:34;15.03;;;3.73;;
7575;SDS011;3829;50.798;4.358;2023-04-25T07:30:59;21.83;;;3.67;;
7575;SDS011;3829;50.798;4.358;2023-04-25T07:33:25;18.43;;;3.10;;
7575;SDS011;3829;50.798;4.358;2023-04-25T07:35:51;10.03;;;3.33;;
7575;SDS011;3829;50.798;4.358;2023-04-25T07:38:17;11.13;;;2.90;;
7575;SDS011;3829;50.798;4.358;2023-04-25T07:40:42;17.67;;;4.20;;
7575;SDS011;3829;50.798;4.358;2023-04-25T07:43:08;11.83;;;2.97;;
7575;SDS011;3829;50.798;4.358;2023-04-25T07:45:34;10.70;;;2.70;;
7575;SDS011;3829;50.798;4.358;2023-04-25T07:47:59;11.43;;;2.93;;
7575;SDS011;3829;50.798;4.358;2023-04-25T07:50:25;8.87;;;2.57;;
7575;SDS011;3829;50.798;4.358;2023-04-25T07:52:50;8.53;;;2.60;;
7575;SDS011;3829;50.798;4.358;2023-04-25T07:55:16;8.77;;;2.40;;
7575;SDS011;3829;50.798;4.358;2023-04-25T07:57:41;9.53;;;2.90;;
7575;SDS011;3829;50.798;4.358;2023-04-25T08:00:07;12.23;;;2.70;;
7575;SDS011;3829;50.798;4.358;2023-04-25T08:02:34;12.30;;;2.87;;
7575;SDS011;3829;50.798;4.358;2023-04-25T08:05:01;7.60;;;2.97;;
7575;SDS011;3829;50.798;4.358;2023-04-25T08:07:27;12.03;;;3.00;;
7575;SDS011;3829;50.798;4.358;2023-04-25T08:09:53;8.23;;;2.17;;
7575;SDS011;3829;50.798;4.358;2023-04-25T08:12:19;7.40;;;2.67;;
7575;SDS011;3829;50.798;4.358;2023-04-25T08:14:44;9.90;;;2.77;;
7575;SDS011;3829;50.798;4.358;2023-04-25T08:17:10;7.03;;;2.37;;
7575;SDS011;3829;50.798;4.358;2023-04-25T08:19:36;9.53;;;2.70;;
7575;SDS011;3829;50.798;4.358;2023-04-25T08:22:02;9.87;;;3.10;;
7575;SDS011;3829;50.798;4.358;2023-04-25T08:24:28;10.07;;;2.53;;
7575;SDS011;3829;50.798;4.358;2023-04-25T08:26:53;11.73;;;2.93;;
7575;SDS011;3829;50.798;4.358;2023-04-25T08:29:19;11.43;;;2.97;;
7575;SDS011;3829;50.798;4.358;2023-04-25T08:31:45;10.07;;;3.10;;
7575;SDS011;3829;50.798;4.358;2023-04-25T08:34:10;12.03;;;3.60;;
7575;SDS011;3829;50.798;4.358;2023-04-25T08:36:36;6.87;;;2.30;;
7575;SDS011;3829;50.798;4.358;2023-04-25T08:39:02;6.60;;;2.23;;
7575;SDS011;3829;50.798;4.358;2023-04-25T08:41:27;7.53;;;2.50;;
7575;SDS011;3829;50.798;4.358;2023-04-25T08:43:53;16.07;;;2.70;;
7575;SDS011;3829;50.798;4.358;2023-04-25T08:46:22;10.37;;;2.50;;
7575;SDS011;3829;50.798;4.358;2023-04-25T08:48:48;15.23;;;2.93;;
7575;SDS011;3829;50.798;4.358;2023-04-25T08:51:17;10.53;;;2.73;;
7575;SDS011;3829;50.798;4.358;2023-04-25T08:53:51;8.33;;;1.90;;
7575;SDS011;3829;50.798;4.358;2023-04-25T08:56:17;7.63;;;2.47;;
7575;SDS011;3829;50.798;4.358;2023-04-25T08:58:45;6.70;;;2.23;;
7575;SDS011;3829;50.798;4.358;2023-04-25T09:01:13;5.77;;;2.53;;
7575;SDS011;3829;50.798;4.358;2023-04-25T09:03:38;5.37;;;1.90;;
7575;SDS011;3829;50.798;4.358;2023-04-25T09:06:04;7.77;;;2.10;;
7575;SDS011;3829;50.798;4.358;2023-04-25T09:08:30;8.63;;;2.23;;
7575;SDS011;3829;50.798;4.358;2023-04-25T09:10:55;8.20;;;2.30;;
7575;SDS011;3829;50.798;4.358;2023-04-25T09:13:25;5.63;;;2.23;;
7575;SDS011;3829;50.798;4.358;2023-04-25T09:15:53;6.50;;;2.13;;
7575;SDS011;3829;50.798;4.358;2023-04-25T09:18:22;6.50;;;2.23;;
7575;SDS011;3829;50.798;4.358;2023-04-25T09:20:51;7.73;;;2.37;;
7575;SDS011;3829;50.798;4.358;2023-04-25T09:23:18;4.93;;;2.03;;
7575;SDS011;3829;50.798;4.358;2023-04-25T09:25:46;11.60;;;2.33;;
7575;SDS011;3829;50.798;4.358;2023-04-25T09:28:13;10.17;;;1.90;;
7575;SDS011;3829;50.798;4.358;2023-04-25T09:30:39;8.73;;;1.80;;
7575;SDS011;3829;50.798;4.358;2023-04-25T09:33:05;9.43;;;2.07;;
7575;SDS011;3829;50.798;4.358;2023-04-25T09:38:09;4.97;;;2.07;;
7575;SDS011;3829;50.798;4.358;2023-04-25T09:40:39;7.87;;;1.70;;
7575;SDS011;3829;50.798;4.358;2023-04-25T09:43:08;8.37;;;1.90;;
7575;SDS011;3829;50.798;4.358;2023-04-25T09:45:40;12.43;;;2.33;;
7575;SDS011;3829;50.798;4.358;2023-04-25T09:48:10;8.73;;;2.00;;
7575;SDS011;3829;50.798;4.358;2023-04-25T09:50:36;6.87;;;1.80;;
7575;SDS011;3829;50.798;4.358;2023-04-25T09:53:03;6.00;;;2.13;;
7575;SDS011;3829;50.798;4.358;2023-04-25T09:55:31;9.33;;;2.73;;
7575;SDS011;3829;50.798;4.358;2023-04-25T09:57:57;7.07;;;2.40;;
7575;SDS011;3829;50.798;4.358;2023-04-25T10:00:30;4.40;;;2.10;;
7575;SDS011;3829;50.798;4.358;2023-04-25T10:02:57;4.23;;;2.00;;
7575;SDS011;3829;50.798;4.358;2023-04-25T10:05:24;7.47;;;2.30;;
7575;SDS011;3829;50.798;4.358;2023-04-25T10:07:52;7.70;;;1.90;;
7575;SDS011;3829;50.798;4.358;2023-04-25T10:10:18;9.43;;;2.30;;
7575;SDS011;3829;50.798;4.358;2023-04-25T10:12:44;10.07;;;2.60;;
7575;SDS011;3829;50.798;4.358;2023-04-25T10:15:10;6.70;;;2.00;;
7575;SDS011;3829;50.798;4.358;2023-04-25T10:17:37;9.27;;;2.33;;
7575;SDS011;3829;50.798;4.358;2023-04-25T10:20:04;6.77;;;1.83;;
7575;SDS011;3829;50.798;4.358;2023-04-25T10:22:36;7.83;;;1.87;;
7575;SDS011;3829;50.798;4.358;2023-04-25T10:25:04;3.57;;;1.40;;
7575;SDS011;3829;50.798;4.358;2023-04-25T10:27:31;8.47;;;1.90;;
7575;SDS011;3829;50.798;4.358;2023-04-25T10:32:37;4.83;;;1.40;;
7575;SDS011;3829;50.798;4.358;2023-04-25T10:35:11;2.00;;;1.40;;
7575;SDS011;3829;50.798;4.358;2023-04-25T10:40:26;3.70;;;1.50;;
7575;SDS011;3829;50.798;4.358;2023-04-25T10:42:52;4.60;;;1.37;;
7575;SDS011;3829;50.798;4.358;2023-04-25T10:45:20;8.00;;;1.53;;
7575;SDS011;3829;50.798;4.358;2023-04-25T10:47:45;4.53;;;1.33;;
7575;SDS011;3829;50.798;4.358;2023-04-25T10:50:11;5.00;;;1.70;;
7575;SDS011;3829;50.798;4.358;2023-04-25T10:52:39;1.13;;;1.03;;
7575;SDS011;3829;50.798;4.358;2023-04-25T10:55:05;3.13;;;1.43;;
7575;SDS011;3829;50.798;4.358;2023-04-25T10:57:45;2.87;;;1.13;;
7575;SDS011;3829;50.798;4.358;2023-04-25T11:00:14;2.23;;;1.30;;
7575;SDS011;3829;50.798;4.358;2023-04-25T11:02:46;4.67;;;1.40;;
7575;SDS011;3829;50.798;4.358;2023-04-25T11:05:19;6.07;;;1.47;;
7575;SDS011;3829;50.798;4.358;2023-04-25T11:07:49;5.37;;;1.30;;
7575;SDS011;3829;50.798;4.358;2023-04-25T11:10:17;4.43;;;1.33;;
7575;SDS011;3829;50.798;4.358;2023-04-25T11:12:44;11.60;;;2.37;;
7575;SDS011;3829;50.798;4.358;2023-04-25T11:15:10;4.57;;;1.60;;
7575;SDS011;3829;50.798;4.358;2023-04-25T11:17:36;8.13;;;2.20;;
7575;SDS011;3829;50.798;4.358;2023-04-25T11:20:02;3.90;;;1.80;;
7575;SDS011;3829;50.798;4.358;2023-04-25T11:22:32;5.37;;;2.03;;
7575;SDS011;3829;50.798;4.358;2023-04-25T11:25:03;11.30;;;1.90;;
7575;SDS011;3829;50.798;4.358;2023-04-25T11:27:30;7.63;;;1.53;;
7575;SDS011;3829;50.798;4.358;2023-04-25T11:29:55;9.30;;;1.90;;
7575;SDS011;3829;50.798;4.358;2023-04-25T11:32:21;12.60;;;1.70;;
7575;SDS011;3829;50.798;4.358;2023-04-25T11:34:46;3.03;;;1.50;;
7575;SDS011;3829;50.798;4.358;2023-04-25T11:37:12;4.20;;;1.70;;
7575;SDS011;3829;50.798;4.358;2023-04-25T11:39:42;4.43;;;1.50;;
7575;SDS011;3829;50.798;4.358;2023-04-25T11:42:09;6.10;;;1.63;;
7575;SDS011;3829;50.798;4.358;2023-04-25T11:44:35;3.93;;;1.60;;
7575;SDS011;3829;50.798;4.358;2023-04-25T11:47:03;5.47;;;1.43;;
7575;SDS011;3829;50.798;4.358;2023-04-25T11:49:30;4.40;;;1.53;;
7575;SDS011;3829;50.798;4.358;2023-04-25T11:51:57;4.40;;;1.20;;
7575;SDS011;3829;50.798;4.358;2023-04-25T11:54:22;2.13;;;1.17;;
7575;SDS011;3829;50.798;4.358;2023-04-25T11:56:48;2.03;;;1.30;;
7575;SDS011;3829;50.798;4.358;2023-04-25T11:59:14;7.53;;;1.80;;
7575;SDS011;3829;50.798;4.358;2023-04-25T12:01:41;2.73;;;1.60;;
7575;SDS011;3829;50.798;4.358;2023-04-25T12:04:14;6.77;;;2.10;;
7575;SDS011;3829;50.798;4.358;2023-04-25T12:06:42;3.23;;;1.30;;
7575;SDS011;3829;50.798;4.358;2023-04-25T12:09:09;8.07;;;1.50;;
7575;SDS011;3829;50.798;4.358;2023-04-25T12:11:40;3.40;;;1.37;;
7575;SDS011;3829;50.798;4.358;2023-04-25T12:16:54;2.27;;;1.40;;
7575;SDS011;3829;50.798;4.358;2023-04-25T12:19:22;4.53;;;1.70;;
7575;SDS011;3829;50.798;4.358;2023-04-25T12:21:48;6.30;;;1.47;;
7575;SDS011;3829;50.798;4.358;2023-04-25T12:24:15;2.30;;;1.60;;
7575;SDS011;3829;50.798;4.358;2023-04-25T12:26:52;2.83;;;1.20;;
7575;SDS011;3829;50.798;4.358;2023-04-25T12:29:20;4.37;;;1.60;;
7575;SDS011;3829;50.798;4.358;2023-04-25T12:31:47;7.80;;;1.93;;
7575;SDS011;3829;50.798;4.358;2023-04-25T12:34:14;4.27;;;1.50;;
7575;SDS011;3829;50.798;4.358;2023-04-25T12:36:40;4.17;;;1.70;;
7575;SDS011;3829;50.798;4.358;2023-04-25T12:39:06;4.93;;;1.53;;
7575;SDS011;3829;50.798;4.358;2023-04-25T12:41:32;4.23;;;1.77;;
7575;SDS011;3829;50.798;4.358;2023-04-25T12:43:57;5.90;;;2.00;;
7575;SDS011;3829;50.798;4.358;2023-04-25T12:46:23;4.63;;;1.30;;
7575;SDS011;3829;50.798;4.358;2023-04-25T12:48:49;2.17;;;1.10;;
7575;SDS011;3829;50.798;4.358;2023-04-25T12:51:15;5.33;;;1.50;;
7575;SDS011;3829;50.798;4.358;2023-04-25T12:53:40;2.63;;;1.20;;
7575;SDS011;3829;50.798;4.358;2023-04-25T12:56:07;4.17;;;1.50;;
7575;SDS011;3829;50.798;4.358;2023-04-25T12:58:33;4.07;;;1.30;;
7575;SDS011;3829;50.798;4.358;2023-04-25T13:00:59;5.10;;;1.47;;
7575;SDS011;3829;50.798;4.358;2023-04-25T13:03:24;4.87;;;1.60;;
7575;SDS011;3829;50.798;4.358;2023-04-25T13:05:50;3.50;;;1.37;;
7575;SDS011;3829;50.798;4.358;2023-04-25T13:08:17;3.33;;;1.13;;
7575;SDS011;3829;50.798;4.358;2023-04-25T13:10:43;4.60;;;1.07;;
7575;SDS011;3829;50.798;4.358;2023-04-25T13:13:09;1.37;;;1.03;;
7575;SDS011;3829;50.798;4.358;2023-04-25T13:15:35;6.23;;;1.30;;
7575;SDS011;3829;50.798;4.358;2023-04-25T13:18:01;3.83;;;1.60;;
7575;SDS011;3829;50.798;4.358;2023-04-25T13:20:28;7.60;;;1.40;;
7575;SDS011;3829;50.798;4.358;2023-04-25T13:22:54;5.60;;;1.60;;
7575;SDS011;3829;50.798;4.358;2023-04-25T13:25:20;1.97;;;1.33;;
7575;SDS011;3829;50.798;4.358;2023-04-25T13:27:46;2.80;;;1.40;;
7575;SDS011;3829;50.798;4.358;2023-04-25T13:30:12;3.50;;;1.37;;
7575;SDS011;3829;50.798;4.358;2023-04-25T13:32:38;2.90;;;1.50;;
7575;SDS011;3829;50.798;4.358;2023-04-25T13:35:06;10.60;;;1.67;;
7575;SDS011;3829;50.798;4.358;2023-04-25T13:37:34;4.30;;;1.03;;
7575;SDS011;3829;50.798;4.358;2023-04-25T13:40:00;3.93;;;1.47;;
7575;SDS011;3829;50.798;4.358;2023-04-25T13:42:29;7.63;;;3.03;;
7575;SDS011;3829;50.798;4.358;2023-04-25T13:44:56;4.90;;;1.43;;
7575;SDS011;3829;50.798;4.358;2023-04-25T13:47:21;4.33;;;1.10;;
7575;SDS011;3829;50.798;4.358;2023-04-25T13:49:48;2.50;;;1.30;;
7575;SDS011;3829;50.798;4.358;2023-04-25T13:52:14;4.43;;;1.70;;
7575;SDS011;3829;50.798;4.358;2023-04-25T13:54:40;4.27;;;1.43;;
7575;SDS011;3829;50.798;4.358;2023-04-25T13:57:05;2.83;;;1.17;;
7575;SDS011;3829;50.798;4.358;2023-04-25T13:59:31;3.07;;;1.23;;
7575;SDS011;3829;50.798;4.358;2023-04-25T14:01:57;1.97;;;1.17;;
7575;SDS011;3829;50.798;4.358;2023-04-25T14:04:23;3.27;;;1.17;;
7575;SDS011;3829;50.798;4.358;2023-04-25T14:06:48;3.13;;;1.20;;
7575;SDS011;3829;50.798;4.358;2023-04-25T14:09:15;2.83;;;1.50;;
7575;SDS011;3829;50.798;4.358;2023-04-25T14:11:40;4.97;;;1.53;;
7575;SDS011;3829;50.798;4.358;2023-04-25T14:14:06;5.03;;;1.67;;
7575;SDS011;3829;50.798;4.358;2023-04-25T14:16:31;4.90;;;1.20;;
7575;SDS011;3829;50.798;4.358;2023-04-25T14:18:57;4.03;;;1.10;;
7575;SDS011;3829;50.798;4.358;2023-04-25T14:21:23;3.70;;;1.13;;
7575;SDS011;3829;50.798;4.358;2023-04-25T14:23:50;2.80;;;1.10;;
7575;SDS011;3829;50.798;4.358;2023-04-25T14:26:15;3.20;;;1.27;;
7575;SDS011;3829;50.798;4.358;2023-04-25T14:28:41;3.10;;;1.27;;
7575;SDS011;3829;50.798;4.358;2023-04-25T14:31:07;4.43;;;1.40;;
7575;SDS011;3829;50.798;4.358;2023-04-25T14:33:32;3.43;;;1.33;;
7575;SDS011;3829;50.798;4.358;2023-04-25T14:35:58;4.40;;;1.10;;
7575;SDS011;3829;50.798;4.358;2023-04-25T14:38:24;3.77;;;1.50;;
7575;SDS011;3829;50.798;4.358;2023-04-25T14:40:50;2.77;;;1.00;;
7575;SDS011;3829;50.798;4.358;2023-04-25T14:43:16;4.03;;;1.10;;
7575;SDS011;3829;50.798;4.358;2023-04-25T14:45:42;2.67;;;1.20;;
7575;SDS011;3829;50.798;4.358;2023-04-25T14:48:07;3.30;;;1.23;;
7575;SDS011;3829;50.798;4.358;2023-04-25T14:50:33;1.93;;;1.27;;
7575;SDS011;3829;50.798;4.358;2023-04-25T14:52:59;3.23;;;1.37;;
7575;SDS011;3829;50.798;4.358;2023-04-25T14:55:26;1.40;;;1.20;;
7575;SDS011;3829;50.798;4.358;2023-04-25T14:57:53;4.00;;;1.63;;
7575;SDS011;3829;50.798;4.358;2023-04-25T15:00:19;4.37;;;1.30;;
7575;SDS011;3829;50.798;4.358;2023-04-25T15:02:45;2.77;;;1.20;;
7575;SDS011;3829;50.798;4.358;2023-04-25T15:05:12;5.90;;;1.27;;
7575;SDS011;3829;50.798;4.358;2023-04-25T15:07:38;2.53;;;1.20;;
7575;SDS011;3829;50.798;4.358;2023-04-25T15:10:05;2.50;;;1.00;;
7575;SDS011;3829;50.798;4.358;2023-04-25T15:12:35;3.73;;;1.30;;